createdAt,value
2023-03-22T00:00:15.662Z,100.00
2023-03-22T00:02:45.556Z,100.00
2023-03-22T00:05:15.888Z,100.00
2023-03-22T00:07:44.780Z,100.00
2023-03-22T00:10:13.775Z,100.00
2023-03-22T00:12:42.161Z,100.00
2023-03-22T00:15:12.076Z,100.00
2023-03-22T00:17:42.318Z,100.00
2023-03-22T00:20:11.637Z,100.00
2023-03-22T00:22:41.726Z,100.00
2023-03-22T00:25:10.723Z,100.00
2023-03-22T00:27:39.455Z,100.00
2023-03-22T00:30:09.501Z,100.00
2023-03-22T00:32:38.225Z,100.00
2023-03-22T00:35:09.491Z,100.00
2023-03-22T00:37:39.305Z,100.00
2023-03-22T00:40:12.746Z,100.00
2023-03-22T00:42:42.783Z,100.00
2023-03-22T00:45:14.062Z,100.00
2023-03-22T00:47:42.797Z,100.00
2023-03-22T00:50:12.176Z,100.00
2023-03-22T00:52:40.815Z,100.00
2023-03-22T00:55:11.349Z,100.00
2023-03-22T00:57:39.779Z,100.00
2023-03-22T01:00:13.376Z,100.00
2023-03-22T01:02:43.063Z,100.00
2023-03-22T01:05:15.760Z,100.00
2023-03-22T01:07:45.182Z,100.00
2023-03-22T01:10:15.617Z,100.00
2023-03-22T01:12:44.079Z,100.00
2023-03-22T01:15:13.485Z,100.00
2023-03-22T01:17:41.921Z,100.00
2023-03-22T01:20:11.955Z,100.00
2023-03-22T01:22:40.649Z,100.00
2023-03-22T01:25:10.216Z,100.00
2023-03-22T01:27:40.547Z,100.00
2023-03-22T01:30:10.810Z,100.00
2023-03-22T01:32:39.355Z,100.00
2023-03-22T01:35:08.943Z,100.00
2023-03-22T01:37:37.453Z,100.00
2023-03-22T01:40:06.855Z,100.00
2023-03-22T01:42:35.872Z,100.00
2023-03-22T01:45:40.485Z,100.00
2023-03-22T01:48:14.296Z,100.00
2023-03-22T01:50:48.386Z,100.00
2023-03-22T01:53:19.686Z,100.00
2023-03-22T01:55:48.790Z,100.00
2023-03-22T01:58:18.339Z,100.00
2023-03-22T02:00:50.730Z,100.00
2023-03-22T02:03:28.502Z,100.00
2023-03-22T02:05:58.088Z,100.00
2023-03-22T02:08:26.783Z,100.00
2023-03-22T02:10:55.390Z,100.00
2023-03-22T02:13:48.154Z,100.00
2023-03-22T02:16:36.041Z,100.00
2023-03-22T02:19:30.004Z,100.00
2023-03-22T02:22:28.788Z,100.00
2023-03-22T02:25:23.288Z,100.00
2023-03-22T02:28:19.383Z,100.00
2023-03-22T02:31:05.520Z,100.00
2023-03-22T02:34:09.054Z,100.00
2023-03-22T02:37:09.648Z,100.00
2023-03-22T02:39:47.468Z,100.00
2023-03-22T02:42:31.577Z,100.00
2023-03-22T02:45:03.362Z,100.00
2023-03-22T02:47:41.033Z,100.00
2023-03-22T02:50:16.123Z,100.00
2023-03-22T02:52:50.665Z,100.00
2023-03-22T02:55:25.856Z,100.00
2023-03-22T02:57:59.407Z,100.00
2023-03-22T03:00:28.696Z,100.00
2023-03-22T03:03:02.395Z,100.00
2023-03-22T03:05:34.470Z,100.00
2023-03-22T03:08:04.270Z,100.00
2023-03-22T03:10:35.042Z,100.00
2023-03-22T03:13:03.460Z,100.00
2023-03-22T03:15:32.339Z,100.00
2023-03-22T03:18:14.095Z,100.00
2023-03-22T03:20:52.585Z,100.00
2023-03-22T03:23:31.383Z,100.00
2023-03-22T03:26:09.774Z,100.00
2023-03-22T03:28:45.614Z,100.00
2023-03-22T03:31:24.123Z,100.00
2023-03-22T03:34:01.633Z,100.00
2023-03-22T03:36:33.925Z,100.00
2023-03-22T03:39:05.423Z,100.00
2023-03-22T03:41:37.123Z,100.00
2023-03-22T03:44:06.699Z,100.00
2023-03-22T03:46:35.979Z,100.00
2023-03-22T03:49:06.628Z,100.00
2023-03-22T03:51:36.010Z,100.00
2023-03-22T03:54:04.690Z,100.00
2023-03-22T03:56:35.174Z,100.00
2023-03-22T03:59:03.708Z,100.00
2023-03-22T04:01:33.123Z,100.00
2023-03-22T04:04:01.518Z,100.00
2023-03-22T04:06:30.399Z,100.00
2023-03-22T04:08:59.060Z,100.00
2023-03-22T04:11:27.754Z,100.00
2023-03-22T04:13:57.530Z,100.00
2023-03-22T04:16:26.242Z,100.00
2023-03-22T04:18:54.686Z,100.00
2023-03-22T04:21:23.133Z,100.00
2023-03-22T04:23:51.643Z,100.00
2023-03-22T04:26:20.031Z,100.00
2023-03-22T04:28:48.815Z,100.00
2023-03-22T04:31:19.221Z,100.00
2023-03-22T04:33:50.028Z,100.00
2023-03-22T04:36:18.549Z,100.00
2023-03-22T04:38:47.214Z,100.00
2023-03-22T04:41:15.772Z,100.00
2023-03-22T04:43:47.224Z,100.00
2023-03-22T04:46:16.565Z,100.00
2023-03-22T04:48:46.329Z,100.00
2023-03-22T04:51:14.462Z,100.00
2023-03-22T04:53:43.141Z,100.00
2023-03-22T04:56:14.874Z,100.00
2023-03-22T04:58:45.460Z,100.00
2023-03-22T05:01:16.844Z,100.00
2023-03-22T05:03:47.713Z,100.00
2023-03-22T05:06:17.086Z,100.00
2023-03-22T05:08:45.392Z,100.00
2023-03-22T05:11:16.684Z,100.00
2023-03-22T05:13:45.518Z,100.00
2023-03-22T05:16:14.268Z,100.00
2023-03-22T05:18:45.765Z,100.00
2023-03-22T05:21:18.055Z,100.00
2023-03-22T05:23:49.165Z,100.00
2023-03-22T05:26:20.586Z,100.00
2023-03-22T05:28:49.287Z,100.00
2023-03-22T05:31:18.052Z,100.00
2023-03-22T05:33:47.209Z,100.00
2023-03-22T05:36:17.228Z,100.00
2023-03-22T05:38:46.857Z,100.00
2023-03-22T05:41:16.241Z,100.00
2023-03-22T05:43:45.747Z,100.00
2023-03-22T05:46:15.347Z,100.00
2023-03-22T05:48:44.160Z,100.00
2023-03-22T05:51:17.624Z,100.00
2023-03-22T05:53:48.903Z,100.00
2023-03-22T05:56:17.521Z,100.00
2023-03-22T05:58:47.314Z,100.00
2023-03-22T06:01:16.771Z,100.00
2023-03-22T06:03:47.355Z,100.00
2023-03-22T06:06:16.053Z,100.00
2023-03-22T06:08:44.945Z,100.00
2023-03-22T06:11:15.753Z,100.00
2023-03-22T06:13:44.107Z,100.00
2023-03-22T06:16:13.039Z,100.00
2023-03-22T06:18:42.294Z,100.00
2023-03-22T06:21:10.491Z,100.00
2023-03-22T06:23:39.329Z,100.00
2023-03-22T06:26:11.683Z,100.00
2023-03-22T06:28:41.527Z,100.00
2023-03-22T06:31:11.681Z,100.00
2023-03-22T06:33:40.243Z,100.00
2023-03-22T06:36:10.006Z,100.00
2023-03-22T06:38:38.652Z,100.00
2023-03-22T06:41:07.710Z,100.00
2023-03-22T06:43:36.503Z,100.00
2023-03-22T06:46:06.830Z,100.00
2023-03-22T06:48:35.138Z,100.00
2023-03-22T06:51:04.110Z,100.00
2023-03-22T06:53:33.658Z,100.00
2023-03-22T06:56:02.339Z,100.00
2023-03-22T06:58:30.620Z,100.00
2023-03-22T07:00:59.140Z,100.00
2023-03-22T07:03:28.968Z,100.00
2023-03-22T07:06:03.370Z,100.00
2023-03-22T07:08:32.841Z,100.00
2023-03-22T07:11:01.728Z,100.00
2023-03-22T07:13:30.260Z,100.00
2023-03-22T07:15:59.541Z,100.00
2023-03-22T07:18:31.421Z,100.00
2023-03-22T07:21:00.199Z,100.00
2023-03-22T07:23:28.746Z,100.00
2023-03-22T07:25:59.362Z,100.00
2023-03-22T07:28:27.743Z,100.00
2023-03-22T07:31:02.319Z,100.00
2023-03-22T07:33:33.267Z,100.00
2023-03-22T07:36:02.132Z,100.00
2023-03-22T07:38:30.794Z,100.00
2023-03-22T07:40:59.447Z,100.00
2023-03-22T07:43:28.002Z,100.00
2023-03-22T07:45:57.535Z,100.00
2023-03-22T07:48:29.014Z,100.00
2023-03-22T07:51:00.070Z,100.00
2023-03-22T07:53:29.352Z,100.00
2023-03-22T07:55:57.828Z,100.00
2023-03-22T07:58:26.355Z,100.00
2023-03-22T08:00:54.808Z,100.00
2023-03-22T08:03:23.604Z,100.00
2023-03-22T08:05:51.993Z,100.00
2023-03-22T08:08:24.157Z,100.00
2023-03-22T08:10:52.844Z,100.00
2023-03-22T08:13:21.372Z,100.00
2023-03-22T08:15:50.813Z,100.00
2023-03-22T08:18:19.277Z,100.00
2023-03-22T08:20:48.021Z,100.00
2023-03-22T08:23:17.015Z,100.00
2023-03-22T08:25:47.178Z,99.71
2023-03-22T08:28:16.150Z,100.00
2023-03-22T08:30:45.231Z,99.25
2023-03-22T08:33:29.020Z,97.48
2023-03-22T08:36:07.496Z,98.19
2023-03-22T08:38:36.414Z,92.50
2023-03-22T08:41:07.028Z,88.28
2023-03-22T08:43:35.876Z,88.46
2023-03-22T08:46:04.741Z,88.80
2023-03-22T08:48:34.830Z,84.22
2023-03-22T08:51:03.573Z,83.50
2023-03-22T08:53:31.988Z,78.83
2023-03-22T08:56:01.813Z,79.82
2023-03-22T08:58:31.607Z,82.75
2023-03-22T09:01:00.086Z,76.95
2023-03-22T09:03:28.968Z,78.43
2023-03-22T09:05:57.581Z,75.59
2023-03-22T09:08:26.252Z,73.93
2023-03-22T09:10:54.645Z,73.84
2023-03-22T09:13:23.985Z,70.63
2023-03-22T09:15:54.336Z,70.32
2023-03-22T09:18:24.517Z,71.34
2023-03-22T09:20:53.585Z,71.38
2023-03-22T09:23:22.474Z,70.54
2023-03-22T09:25:51.282Z,68.56
2023-03-22T09:28:20.917Z,64.27
2023-03-22T09:30:49.730Z,65.27
2023-03-22T09:33:20.486Z,62.72
2023-03-22T09:35:48.603Z,62.24
2023-03-22T09:38:17.341Z,63.78
2023-03-22T09:41:00.689Z,62.66
2023-03-22T09:43:33.108Z,66.30
2023-03-22T09:46:02.130Z,64.89
2023-03-22T09:48:35.207Z,64.71
2023-03-22T09:51:06.448Z,65.36
2023-03-22T09:53:35.680Z,63.47
2023-03-22T09:56:12.698Z,64.75
2023-03-22T09:58:52.382Z,65.92
2023-03-22T10:01:35.497Z,61.80
2023-03-22T10:04:26.722Z,63.98
2023-03-22T10:07:08.464Z,64.50
2023-03-22T10:09:47.890Z,64.81
2023-03-22T10:12:24.924Z,65.61
2023-03-22T10:15:04.006Z,62.89
2023-03-22T10:17:33.100Z,62.87
2023-03-22T10:20:08.809Z,64.39
2023-03-22T10:22:42.788Z,63.27
2023-03-22T10:25:11.792Z,64.15
2023-03-22T10:27:40.865Z,66.20
2023-03-22T10:30:22.358Z,65.49
2023-03-22T10:32:58.466Z,66.16
2023-03-22T10:35:29.040Z,63.58
2023-03-22T10:38:01.169Z,65.20
2023-03-22T10:40:34.109Z,60.79
2023-03-22T10:43:08.570Z,59.58
2023-03-22T10:45:39.377Z,58.50
2023-03-22T10:48:13.965Z,57.10
2023-03-22T10:50:47.032Z,56.46
2023-03-22T10:53:24.922Z,56.43
2023-03-22T10:55:54.783Z,55.48
2023-03-22T10:58:24.698Z,55.62
2023-03-22T11:00:55.172Z,55.37
2023-03-22T11:03:30.702Z,56.05
2023-03-22T11:06:08.296Z,57.27
2023-03-22T11:08:46.358Z,55.25
2023-03-22T11:11:22.180Z,56.05
2023-03-22T11:13:57.076Z,56.63
2023-03-22T11:16:25.517Z,57.32
2023-03-22T11:18:54.458Z,57.17
2023-03-22T11:21:30.575Z,54.92
2023-03-22T11:24:07.048Z,55.22
2023-03-22T11:26:40.688Z,55.97
2023-03-22T11:29:15.160Z,56.92
2023-03-22T11:31:56.056Z,52.40
2023-03-22T11:34:27.827Z,53.33
2023-03-22T11:37:01.049Z,51.45
2023-03-22T11:39:31.177Z,51.46
2023-03-22T11:42:01.849Z,51.19
2023-03-22T11:44:38.328Z,53.35
2023-03-22T11:47:10.761Z,51.61
2023-03-22T11:49:46.123Z,51.49
2023-03-22T11:52:19.611Z,52.51
2023-03-22T11:54:49.624Z,50.66
2023-03-22T11:57:21.988Z,49.92
2023-03-22T11:59:58.544Z,51.18
2023-03-22T12:02:30.941Z,50.12
2023-03-22T12:05:06.555Z,50.54
2023-03-22T12:07:38.257Z,49.52
2023-03-22T12:10:14.789Z,51.36
2023-03-22T12:12:48.999Z,51.44
2023-03-22T12:15:22.226Z,49.45
2023-03-22T12:17:57.499Z,51.54
2023-03-22T12:20:37.745Z,50.33
2023-03-22T12:23:15.733Z,51.25
2023-03-22T12:25:50.949Z,50.76
2023-03-22T12:28:24.040Z,52.07
2023-03-22T12:30:56.552Z,50.11
2023-03-22T12:33:28.939Z,48.99
2023-03-22T12:36:00.394Z,49.25
2023-03-22T12:38:39.990Z,47.99
2023-03-22T12:41:13.718Z,48.24
2023-03-22T12:43:51.386Z,50.38
2023-03-22T12:46:26.782Z,48.29
2023-03-22T12:48:59.948Z,48.12
2023-03-22T12:51:29.236Z,48.08
2023-03-22T12:54:01.494Z,47.99
2023-03-22T12:56:34.615Z,47.45
2023-03-22T12:59:07.386Z,46.65
2023-03-22T13:01:46.339Z,46.61
2023-03-22T13:04:34.182Z,47.08
2023-03-22T13:07:16.839Z,44.19
2023-03-22T13:09:47.891Z,46.55
2023-03-22T13:12:34.634Z,45.78
2023-03-22T13:15:40.437Z,47.78
2023-03-22T13:18:33.083Z,45.94
2023-03-22T13:21:16.738Z,44.90
2023-03-22T13:24:01.900Z,46.26
2023-03-22T13:26:38.027Z,45.49
2023-03-22T13:29:13.491Z,46.00
2023-03-22T13:31:46.483Z,46.88
2023-03-22T13:34:21.142Z,46.57
2023-03-22T13:37:20.883Z,45.19
2023-03-22T13:39:52.079Z,45.61
2023-03-22T13:42:23.647Z,45.43
2023-03-22T13:44:58.740Z,44.50
2023-03-22T13:47:38.731Z,45.92
2023-03-22T13:50:16.205Z,46.20
2023-03-22T13:52:53.254Z,45.42
2023-03-22T13:55:58.895Z,44.56
2023-03-22T13:58:50.127Z,44.77
2023-03-22T14:01:26.272Z,45.46
2023-03-22T14:03:55.752Z,44.96
2023-03-22T14:06:28.969Z,46.43
2023-03-22T14:09:02.676Z,46.54
2023-03-22T14:11:39.295Z,47.88
2023-03-22T14:14:17.259Z,47.63
2023-03-22T14:16:50.236Z,45.33
2023-03-22T14:19:23.677Z,45.57
